Time;durP1;ratioP1;P1;durP2;ratioP2;P2;SDS_P1;SDS_P2;PMS_P1;PMS_P2;Temp;Humidity;BMP_temperature;BMP_pressure;BME280_temperature;BME280_humidity;BME280_pressure;Samples;Min_cycle;Max_cycle;Signal;HPM_P1;HPM_P2
2022/07/30 00:00:18;;;;;;;6.67;6.03;;;17.90;99.90;;;;;;5076678;28;20463;-55
2022/07/30 00:02:46;;;;;;;7.43;6.73;;;17.80;99.90;;;;;;5076475;28;20544;-58
2022/07/30 00:05:13;;;;;;;10.67;7.37;;;17.70;99.90;;;;;;5076216;28;20467;-58
2022/07/30 00:07:40;;;;;;;6.70;5.60;;;17.60;99.90;;;;;;5076914;28;20463;-55
2022/07/30 00:10:14;;;;;;;7.10;6.40;;;17.60;99.90;;;;;;5077211;28;20560;-59
2022/07/30 00:13:05;;;;;;;6.90;6.20;;;17.60;99.90;;;;;;5076470;28;20465;-55
2022/07/30 00:15:32;;;;;;;7.43;6.50;;;17.40;99.90;;;;;;5076720;28;20888;-59
2022/07/30 00:17:59;;;;;;;10.13;5.93;;;17.40;99.90;;;;;;5077033;28;20572;-55
2022/07/30 00:20:26;;;;;;;7.37;6.67;;;17.30;99.90;;;;;;5076899;28;20733;-58
2022/07/30 00:22:54;;;;;;;6.40;5.80;;;17.20;99.90;;;;;;5075939;28;20983;-59
2022/07/30 00:25:27;;;;;;;7.77;6.57;;;17.20;99.90;;;;;;5081193;28;20474;-59
2022/07/30 00:27:54;;;;;;;7.73;7.03;;;17.10;99.90;;;;;;5080801;28;20461;-58
2022/07/30 00:30:27;;;;;;;8.57;6.40;;;17.10;99.90;;;;;;5081170;28;20461;-58
2022/07/30 00:32:54;;;;;;;6.23;5.73;;;17.00;99.90;;;;;;5081028;28;20472;-57
2022/07/30 00:35:22;;;;;;;7.07;6.40;;;16.90;99.90;;;;;;5080835;28;20763;-59
2022/07/30 00:37:52;;;;;;;10.90;6.87;;;16.80;99.90;;;;;;5080854;28;20461;-56
2022/07/30 00:40:23;;;;;;;6.70;5.97;;;16.80;1.00;;;;;;5081119;28;20457;-59
2022/07/30 00:42:54;;;;;;;7.97;6.70;;;16.70;1.00;;;;;;5080528;28;20440;-58
2022/07/30 00:45:22;;;;;;;7.60;6.73;;;16.60;1.00;;;;;;5080654;28;20960;-58
2022/07/30 00:47:49;;;;;;;9.80;7.57;;;16.50;1.00;;;;;;5080757;28;20563;-55
2022/07/30 00:50:19;;;;;;;7.60;6.90;;;16.40;1.00;;;;;;5080663;28;20463;-58
2022/07/30 00:52:47;;;;;;;7.60;6.80;;;16.40;1.00;;;;;;5080121;28;20462;-58
2022/07/30 00:55:15;;;;;;;8.10;7.40;;;16.40;1.00;;;;;;5080236;28;20472;-56
2022/07/30 00:57:46;;;;;;;8.77;6.57;;;16.30;1.00;;;;;;5080490;28;20889;-58
2022/07/30 01:00:17;;;;;;;7.87;7.17;;;16.30;1.00;;;;;;5080718;28;20465;-58
2022/07/30 01:02:45;;;;;;;12.03;7.10;;;16.20;1.00;;;;;;5072911;28;20492;-57
2022/07/30 01:05:15;;;;;;;7.30;6.60;;;16.20;1.00;;;;;;5079895;28;20493;-55
2022/07/30 01:07:44;;;;;;;7.03;6.43;;;16.30;1.00;;;;;;5080565;28;20522;-56
2022/07/30 01:10:13;;;;;;;6.73;6.13;;;16.30;1.00;;;;;;5080330;28;20539;-58
2022/07/30 01:12:42;;;;;;;9.30;7.33;;;16.30;1.00;;;;;;5080285;28;20739;-55
2022/07/30 01:15:12;;;;;;;7.10;6.40;;;16.20;1.00;;;;;;5080024;28;20457;-58
2022/07/30 01:17:42;;;;;;;8.33;7.10;;;16.20;1.00;;;;;;5080247;28;20515;-58
2022/07/30 01:20:15;;;;;;;8.07;7.37;;;16.10;1.00;;;;;;5080073;28;20749;-56
2022/07/30 01:22:57;;;;;;;8.93;6.07;;;16.10;1.00;;;;;;5080109;28;20467;-58
2022/07/30 01:25:44;;;;;;;7.23;6.30;;;16.10;1.00;;;;;;5079815;28;20468;-51
2022/07/30 01:28:19;;;;;;;8.50;7.60;;;16.10;1.00;;;;;;5080069;28;20530;-54
2022/07/30 01:30:48;;;;;;;8.60;7.80;;;16.00;1.00;;;;;;5079772;28;20439;-58
2022/07/30 01:33:18;;;;;;;10.07;6.30;;;15.90;1.00;;;;;;5079683;28;20500;-56
2022/07/30 01:35:48;;;;;;;7.30;6.40;;;15.90;1.00;;;;;;5078983;28;20526;-54
2022/07/30 01:38:22;;;;;;;7.57;6.83;;;15.90;1.00;;;;;;5079686;28;20439;-57
2022/07/30 01:40:54;;;;;;;7.87;7.07;;;15.90;1.00;;;;;;5079817;28;20747;-58
2022/07/30 01:43:24;;;;;;;7.90;7.20;;;15.80;1.00;;;;;;5079484;28;20489;-53
2022/07/30 01:45:52;;;;;;;8.17;7.37;;;15.70;1.00;;;;;;5079481;28;20468;-57
2022/07/30 01:48:22;;;;;;;7.77;7.00;;;15.60;1.00;;;;;;5079640;28;20882;-55
2022/07/30 01:50:56;;;;;;;7.40;6.70;;;15.60;1.00;;;;;;5079197;28;20466;-52
2022/07/30 01:53:29;;;;;;;8.50;7.70;;;15.50;1.00;;;;;;5079426;28;20535;-53
2022/07/30 01:56:15;;;;;;;7.57;6.80;;;15.40;1.00;;;;;;5079473;28;20556;-55
2022/07/30 01:58:43;;;;;;;8.10;7.30;;;15.40;1.00;;;;;;5079280;28;20461;-55
2022/07/30 02:01:10;;;;;;;9.90;8.07;;;15.30;1.00;;;;;;5079458;28;20853;-53
2022/07/30 02:03:37;;;;;;;7.97;6.77;;;15.30;1.00;;;;;;5079406;28;20497;-58
2022/07/30 02:06:09;;;;;;;8.73;7.37;;;15.30;1.00;;;;;;5079260;28;20493;-56
2022/07/30 02:08:41;;;;;;;7.33;6.63;;;15.20;1.00;;;;;;5078927;28;20472;-56
2022/07/30 02:12:27;;;;;;;7.47;6.67;;;15.30;1.00;;;;;;5079461;28;20457;-57
2022/07/30 02:14:07;;;;;;;8.20;7.40;;;15.30;1.00;;;;;;5078602;28;20488;-54
2022/07/30 02:16:41;;;;;;;11.30;7.47;;;15.20;1.00;;;;;;5079187;28;20465;-58
2022/07/30 02:19:13;;;;;;;8.20;7.20;;;15.20;1.00;;;;;;5078856;28;20440;-57
2022/07/30 02:21:44;;;;;;;8.83;7.67;;;15.10;1.00;;;;;;5078166;28;20461;-56
2022/07/30 02:24:13;;;;;;;8.17;7.20;;;15.10;1.00;;;;;;5079100;28;20470;-57
2022/07/30 02:26:45;;;;;;;7.87;7.10;;;15.10;1.00;;;;;;5079094;28;20443;-56
2022/07/30 02:29:15;;;;;;;8.57;7.00;;;15.00;1.00;;;;;;5078822;28;20511;-50
2022/07/30 02:31:44;;;;;;;10.27;7.73;;;15.10;1.00;;;;;;5078704;28;20442;-55
2022/07/30 02:34:13;;;;;;;8.93;8.07;;;15.10;1.00;;;;;;5078696;28;20457;-51
2022/07/30 02:36:43;;;;;;;7.87;7.00;;;14.90;1.00;;;;;;5078179;28;20442;-58
2022/07/30 02:39:11;;;;;;;8.47;7.60;;;14.90;1.00;;;;;;5078839;28;20878;-57
2022/07/30 02:41:41;;;;;;;8.40;7.17;;;14.80;1.00;;;;;;5078377;28;20446;-58
2022/07/30 02:44:16;;;;;;;8.57;7.60;;;14.80;1.00;;;;;;5078657;28;20461;-57
2022/07/30 02:46:43;;;;;;;8.70;7.80;;;14.70;1.00;;;;;;5076869;28;20461;-55
2022/07/30 02:49:13;;;;;;;10.83;7.80;;;14.70;1.00;;;;;;5077372;28;20503;-53
2022/07/30 02:51:42;;;;;;;9.33;8.43;;;14.70;8.40;;;;;;5078197;28;20469;-55
2022/07/30 02:54:11;;;;;;;7.83;7.00;;;14.60;1.00;;;;;;5077806;28;20439;-57
2022/07/30 02:56:40;;;;;;;8.50;7.80;;;14.60;1.00;;;;;;5078381;28;20583;-57
2022/07/30 02:59:10;;;;;;;7.83;7.10;;;14.60;1.00;;;;;;5078319;28;20764;-58
2022/07/30 03:01:38;;;;;;;9.60;8.50;;;14.50;1.00;;;;;;5076940;28;20468;-56
2022/07/30 03:04:06;;;;;;;8.63;7.73;;;14.50;49.30;;;;;;5077381;28;20424;-55
2022/07/30 03:06:37;;;;;;;9.00;8.10;;;14.50;55.30;;;;;;5077741;28;20861;-56
2022/07/30 03:09:07;;;;;;;7.90;7.10;;;14.60;78.30;;;;;;5077722;28;20462;-57
2022/07/30 03:11:35;;;;;;;9.27;7.07;;;14.60;13.30;;;;;;5078125;28;20442;-56
2022/07/30 03:14:02;;;;;;;9.63;7.47;;;14.50;13.00;;;;;;5077792;28;20471;-52
2022/07/30 03:16:37;;;;;;;8.53;7.77;;;14.50;44.80;;;;;;5077240;28;20463;-57
2022/07/30 03:19:08;;;;;;;13.37;7.97;;;14.40;99.90;;;;;;5077753;28;20439;-53
2022/07/30 03:21:39;;;;;;;11.80;8.00;;;14.40;99.90;;;;;;5077684;28;20461;-58
2022/07/30 03:24:09;;;;;;;9.00;8.17;;;14.40;99.90;;;;;;5078199;28;20468;-58
2022/07/30 03:26:40;;;;;;;8.50;7.80;;;14.40;99.90;;;;;;5077279;28;20464;-56
2022/07/30 03:29:10;;;;;;;9.93;7.93;;;14.40;99.90;;;;;;5077423;28;20497;-57
2022/07/30 03:31:39;;;;;;;8.90;7.30;;;14.40;99.90;;;;;;5077517;28;20463;-58
2022/07/30 03:34:07;;;;;;;11.97;8.90;;;14.40;99.90;;;;;;5077796;28;20849;-54
2022/07/30 03:36:38;;;;;;;8.40;7.50;;;14.30;30.60;;;;;;5077170;28;20428;-54
2022/07/30 03:39:08;;;;;;;9.20;8.40;;;14.30;73.10;;;;;;5077552;28;20440;-53
2022/07/30 03:41:39;;;;;;;9.43;8.50;;;14.20;99.90;;;;;;5077454;28;20737;-56
2022/07/30 03:44:07;;;;;;;8.50;7.70;;;14.20;99.90;;;;;;5077542;28;20468;-57
2022/07/30 03:46:37;;;;;;;13.10;8.77;;;14.10;99.90;;;;;;5077037;28;20489;-57
2022/07/30 03:49:06;;;;;;;8.67;7.87;;;14.10;99.90;;;;;;5077274;28;20916;-55
2022/07/30 03:51:36;;;;;;;8.77;7.87;;;14.10;99.90;;;;;;5077459;28;20472;-58
2022/07/30 03:54:08;;;;;;;8.80;8.10;;;14.00;99.90;;;;;;5077663;28;20890;-56
2022/07/30 03:56:36;;;;;;;9.30;8.17;;;14.00;99.90;;;;;;5076879;28;20507;-54
2022/07/30 03:59:05;;;;;;;8.63;7.73;;;14.00;99.90;;;;;;5077035;28;20832;-56
2022/07/30 04:01:34;;;;;;;8.43;7.70;;;14.00;99.90;;;;;;5077367;28;20496;-58
2022/07/30 04:04:09;;;;;;;10.63;7.93;;;14.00;99.90;;;;;;5077251;28;20961;-54
2022/07/30 04:06:39;;;;;;;9.00;7.97;;;14.10;99.90;;;;;;5076817;28;20789;-56
2022/07/30 04:09:08;;;;;;;8.40;7.60;;;14.00;99.90;;;;;;5077274;28;20560;-57
2022/07/30 04:11:35;;;;;;;10.73;9.63;;;14.00;99.90;;;;;;5077352;28;20441;-54
2022/07/30 04:14:03;;;;;;;9.57;8.20;;;14.00;99.90;;;;;;5077351;28;20514;-50
2022/07/30 04:16:43;;;;;;;9.20;8.30;;;14.00;99.90;;;;;;5076620;28;20461;-56
2022/07/30 04:19:16;;;;;;;8.40;7.70;;;13.90;99.90;;;;;;5076966;28;20473;-55
2022/07/30 04:21:46;;;;;;;10.63;8.33;;;13.90;99.90;;;;;;5077056;28;20465;-55
2022/07/30 04:24:15;;;;;;;11.80;8.83;;;13.90;99.90;;;;;;5077014;28;20466;-55
2022/07/30 04:26:43;;;;;;;9.00;8.20;;;13.90;99.90;;;;;;5076573;28;20499;-54
2022/07/30 04:29:14;;;;;;;9.10;8.20;;;13.90;99.90;;;;;;5077031;28;20440;-58
2022/07/30 04:31:41;;;;;;;11.77;9.17;;;13.90;99.90;;;;;;5077079;28;20766;-57
2022/07/30 04:34:12;;;;;;;9.17;8.30;;;13.90;99.90;;;;;;5077176;28;20435;-54
2022/07/30 04:36:42;;;;;;;10.63;9.67;;;13.90;99.90;;;;;;5063102;28;20494;-53
2022/07/30 04:39:09;;;;;;;12.27;8.30;;;13.90;99.90;;;;;;5069061;28;20474;-53
2022/07/30 04:41:37;;;;;;;9.17;8.27;;;13.90;99.90;;;;;;5064005;28;20984;-58
2022/07/30 04:44:07;;;;;;;11.10;9.73;;;14.00;99.90;;;;;;5065743;28;20844;-52
2022/07/30 04:46:34;;;;;;;8.73;7.83;;;14.00;99.90;;;;;;5074985;28;20600;-56
2022/07/30 04:49:01;;;;;;;11.47;9.23;;;14.10;99.90;;;;;;5060212;28;20465;-56
2022/07/30 04:51:32;;;;;;;11.47;8.80;;;14.10;99.90;;;;;;5067871;28;20473;-54
2022/07/30 04:54:02;;;;;;;8.83;8.03;;;14.20;99.90;;;;;;5059420;28;20500;-55
2022/07/30 04:56:33;;;;;;;9.40;8.40;;;14.30;99.90;;;;;;5067737;28;20466;-53
2022/07/30 04:59:01;;;;;;;10.20;8.83;;;14.30;99.90;;;;;;5068570;28;20465;-55
2022/07/30 05:01:36;;;;;;;8.83;7.93;;;14.30;99.90;;;;;;5076605;28;20461;-57
2022/07/30 05:04:04;;;;;;;9.10;8.20;;;14.30;99.90;;;;;;5076723;28;20889;-58
2022/07/30 05:06:35;;;;;;;9.20;8.37;;;14.40;99.90;;;;;;5068456;28;20496;-54
2022/07/30 05:09:05;;;;;;;9.30;8.40;;;14.40;99.90;;;;;;5072775;28;20447;-56
2022/07/30 05:11:32;;;;;;;9.03;8.20;;;14.50;99.90;;;;;;5074063;28;20568;-55
2022/07/30 05:13:59;;;;;;;8.57;7.87;;;14.50;99.90;;;;;;5075379;28;21045;-56
2022/07/30 05:16:28;;;;;;;10.90;8.90;;;14.60;99.90;;;;;;5068008;28;20899;-54
2022/07/30 05:18:55;;;;;;;9.57;8.60;;;14.70;99.90;;;;;;5071067;28;20777;-56
2022/07/30 05:21:22;;;;;;;9.83;8.87;;;14.70;99.90;;;;;;5060433;28;20535;-58
2022/07/30 05:23:50;;;;;;;9.93;9.03;;;14.80;99.90;;;;;;5065023;28;20970;-50
2022/07/30 05:26:20;;;;;;;10.23;9.37;;;14.90;99.90;;;;;;5077282;28;20789;-56
2022/07/30 05:28:48;;;;;;;11.40;8.97;;;15.00;99.90;;;;;;5079678;28;20483;-57
2022/07/30 05:31:15;;;;;;;10.67;9.53;;;15.00;99.90;;;;;;5072262;28;20474;-52
2022/07/30 05:33:42;;;;;;;10.40;9.50;;;15.10;99.90;;;;;;5065678;28;20437;-58
2022/07/30 05:36:09;;;;;;;10.20;9.20;;;15.30;99.90;;;;;;5059426;28;20433;-58
2022/07/30 05:38:40;;;;;;;9.93;8.93;;;15.30;93.60;;;;;;5077284;28;20465;-56
2022/07/30 05:41:07;;;;;;;10.60;9.60;;;15.40;99.90;;;;;;5070994;28;20491;-58
2022/07/30 05:43:36;;;;;;;11.87;10.23;;;15.60;74.20;;;;;;5063657;28;20470;-53
2022/07/30 05:46:03;;;;;;;10.00;9.07;;;15.70;21.80;;;;;;5058883;28;20468;-53
2022/07/30 05:48:34;;;;;;;10.67;9.70;;;15.80;1.00;;;;;;5059509;28;20466;-55
2022/07/30 05:51:04;;;;;;;10.33;9.10;;;15.90;1.00;;;;;;5059388;28;20588;-57
2022/07/30 05:53:33;;;;;;;10.00;9.20;;;16.00;1.00;;;;;;5060141;28;20492;-57
2022/07/30 05:56:07;;;;;;;11.93;9.93;;;16.20;1.00;;;;;;5060454;28;20447;-52
2022/07/30 05:58:37;;;;;;;12.00;10.80;;;16.30;1.00;;;;;;5068494;28;20461;-57
2022/07/30 06:01:09;;;;;;;11.57;10.43;;;16.50;1.00;;;;;;5080521;28;20524;-56
2022/07/30 06:03:36;;;;;;;13.90;11.27;;;16.60;1.00;;;;;;5081296;28;20436;-58
2022/07/30 06:06:04;;;;;;;12.37;11.10;;;16.80;1.00;;;;;;5080897;28;20865;-57
2022/07/30 06:08:32;;;;;;;13.33;11.80;;;17.10;1.00;;;;;;5079745;28;20436;-57
2022/07/30 06:11:00;;;;;;;16.77;12.97;;;17.30;1.00;;;;;;5079657;28;20560;-58
2022/07/30 06:13:32;;;;;;;14.53;12.93;;;17.60;1.00;;;;;;5077891;28;20543;-57
2022/07/30 06:16:11;;;;;;;19.70;16.37;;;17.80;1.00;;;;;;5066824;28;20449;-55
2022/07/30 06:18:40;;;;;;;23.47;17.60;;;18.00;1.00;;;;;;5073189;28;20469;-58
2022/07/30 06:21:09;;;;;;;20.90;18.60;;;18.20;1.00;;;;;;5067854;28;20454;-56
2022/07/30 06:23:42;;;;;;;22.57;18.87;;;18.40;1.00;;;;;;5077785;28;20465;-56
2022/07/30 06:26:14;;;;;;;35.30;20.83;;;18.50;1.00;;;;;;5077904;28;20515;-58
2022/07/30 06:28:44;;;;;;;28.37;20.70;;;18.50;1.00;;;;;;5077769;28;20814;-57
2022/07/30 06:31:14;;;;;;;24.77;20.03;;;18.60;1.00;;;;;;5079725;28;20461;-55
2022/07/30 06:33:44;;;;;;;27.80;22.00;;;18.90;1.00;;;;;;5077510;28;20457;-58
2022/07/30 06:36:13;;;;;;;26.80;21.60;;;19.10;99.90;;;;;;5078205;28;20434;-57
2022/07/30 06:38:40;;;;;;;31.70;21.63;;;19.30;99.90;;;;;;5077777;28;20473;-58
2022/07/30 06:41:08;;;;;;;33.60;23.53;;;19.40;99.90;;;;;;5078557;28;20468;-59
2022/07/30 06:43:35;;;;;;;31.87;22.57;;;19.30;99.90;;;;;;5078262;28;20740;-58
2022/07/30 06:46:02;;;;;;;34.07;22.70;;;19.70;99.90;;;;;;5078131;28;20500;-58
2022/07/30 06:48:34;;;;;;;28.77;21.57;;;20.00;99.90;;;;;;5076113;28;20469;-57
2022/07/30 06:51:14;;;;;;;33.27;22.03;;;20.20;99.90;;;;;;5069372;28;20470;-57
2022/07/30 06:53:44;;;;;;;35.13;22.70;;;20.20;99.90;;;;;;5075651;28;20516;-57
2022/07/30 06:56:14;;;;;;;32.93;22.00;;;20.20;99.90;;;;;;5073696;28;20875;-58
2022/07/30 06:58:48;;;;;;;27.50;21.50;;;20.40;99.90;;;;;;5071343;28;20469;-57
2022/07/30 07:01:19;;;;;;;32.40;22.33;;;20.40;99.90;;;;;;5075612;28;20764;-59
2022/07/30 07:03:50;;;;;;;37.03;26.17;;;20.30;99.90;;;;;;5077181;28;20453;-58
2022/07/30 07:06:18;;;;;;;45.23;24.30;;;20.60;99.90;;;;;;5074948;28;20802;-59
2022/07/30 07:08:51;;;;;;;45.30;27.17;;;20.80;99.90;;;;;;5077020;28;20485;-58
2022/07/30 07:11:26;;;;;;;45.53;26.60;;;21.00;99.90;;;;;;5075255;28;20457;-59
2022/07/30 07:13:54;;;;;;;46.30;26.33;;;21.30;99.90;;;;;;5073592;28;20765;-56
2022/07/30 07:16:24;;;;;;;46.33;26.70;;;21.60;99.90;;;;;;5069404;28;20469;-50
2022/07/30 07:18:56;;;;;;;35.97;23.00;;;21.90;99.90;;;;;;5070972;28;20496;-58
2022/07/30 07:21:23;;;;;;;37.60;24.00;;;21.90;99.90;;;;;;5058950;28;20447;-58
2022/07/30 07:23:51;;;;;;;36.83;23.50;;;21.80;99.90;;;;;;5061337;28;20528;-59
2022/07/30 07:26:19;;;;;;;33.47;24.53;;;22.00;99.90;;;;;;5058361;28;20501;-58
2022/07/30 07:28:46;;;;;;;32.40;24.83;;;22.10;99.90;;;;;;5058578;28;21011;-57
2022/07/30 07:31:14;;;;;;;32.23;25.10;;;22.30;99.90;;;;;;5068101;28;20560;-59
2022/07/30 07:33:45;;;;;;;30.70;25.00;;;22.40;99.90;;;;;;5058274;28;20564;-58
2022/07/30 07:36:14;;;;;;;33.80;27.27;;;22.40;99.90;;;;;;5068774;28;20803;-53
2022/07/30 07:38:50;;;;;;;34.10;28.57;;;22.50;99.90;;;;;;5056690;28;20750;-57
2022/07/30 07:41:19;;;;;;;39.60;29.67;;;22.50;99.90;;;;;;5055955;28;20544;-58
2022/07/30 07:43:47;;;;;;;40.93;33.00;;;22.40;99.90;;;;;;5057135;28;20796;-58
2022/07/30 07:46:22;;;;;;;55.50;35.47;;;22.40;99.90;;;;;;5055552;28;20490;-56
2022/07/30 07:48:54;;;;;;;61.90;39.93;;;21.90;99.90;;;;;;5055838;28;20457;-58
2022/07/30 07:51:23;;;;;;;59.90;42.40;;;21.80;99.90;;;;;;5057490;28;20787;-58
2022/07/30 07:53:50;;;;;;;63.77;45.30;;;22.10;99.90;;;;;;5057206;28;21037;-58
2022/07/30 07:56:25;;;;;;;61.43;46.93;;;22.50;99.90;;;;;;5056487;28;20511;-56
2022/07/30 07:58:58;;;;;;;80.60;47.33;;;22.60;99.90;;;;;;5058095;28;20958;-58
2022/07/30 08:01:25;;;;;;;58.93;44.57;;;22.50;99.90;;;;;;5055896;28;20498;-55
2022/07/30 08:03:54;;;;;;;61.43;47.00;;;22.00;99.90;;;;;;5052809;28;20463;-56
2022/07/30 08:06:35;;;;;;;59.70;45.40;;;22.10;99.90;;;;;;5053554;28;20471;-58
2022/07/30 08:09:02;;;;;;;59.40;45.60;;;22.30;99.90;;;;;;5054988;28;20883;-58
2022/07/30 08:11:31;;;;;;;64.40;46.70;;;22.90;99.90;;;;;;5055693;28;20466;-58
2022/07/30 08:13:58;;;;;;;59.77;44.90;;;23.00;99.90;;;;;;5057050;28;20473;-58
2022/07/30 08:16:30;;;;;;;59.83;45.17;;;23.00;99.90;;;;;;5056435;28;20469;-53
2022/07/30 08:18:58;;;;;;;61.23;46.00;;;23.50;99.90;;;;;;5057846;28;20466;-58
2022/07/30 08:21:26;;;;;;;62.27;46.07;;;23.40;99.90;;;;;;5056551;28;20465;-57
2022/07/30 08:23:55;;;;;;;68.40;45.77;;;23.20;99.90;;;;;;5056215;28;20466;-59
2022/07/30 08:26:22;;;;;;;58.27;45.40;;;23.40;99.90;;;;;;5056319;28;20490;-60
2022/07/30 08:28:49;;;;;;;61.40;44.60;;;23.20;99.90;;;;;;5056428;28;20473;-60
2022/07/30 08:31:21;;;;;;;59.43;44.57;;;23.50;99.90;;;;;;5056162;28;20654;-59
2022/07/30 08:33:48;;;;;;;60.57;44.70;;;23.90;99.90;;;;;;5055544;28;20458;-61
2022/07/30 08:36:17;;;;;;;56.50;40.50;;;24.30;99.90;;;;;;5055349;28;20776;-61
2022/07/30 08:38:45;;;;;;;58.37;42.53;;;24.50;99.90;;;;;;5055500;28;20498;-60
2022/07/30 08:41:13;;;;;;;48.83;39.80;;;24.70;99.90;;;;;;5055852;28;20462;-56
2022/07/30 08:43:41;;;;;;;52.33;39.40;;;24.60;99.90;;;;;;5055749;28;20525;-60
2022/07/30 08:46:11;;;;;;;50.30;38.57;;;24.50;99.90;;;;;;5059119;28;20462;-60
2022/07/30 08:48:39;;;;;;;53.40;38.67;;;24.50;99.90;;;;;;5059677;28;20466;-58
2022/07/30 08:51:09;;;;;;;43.80;36.20;;;24.30;99.90;;;;;;5059473;28;20909;-57
2022/07/30 08:53:36;;;;;;;42.60;33.57;;;24.40;99.90;;;;;;5017847;28;1267868;-58
2022/07/30 08:56:10;;;;;;;39.80;32.50;;;24.90;99.90;;;;;;5079755;28;20514;-58
2022/07/30 08:58:45;;;;;;;40.53;31.77;;;25.30;99.90;;;;;;5080242;28;20762;-58
2022/07/30 09:01:13;;;;;;;36.50;30.30;;;25.50;99.90;;;;;;5080433;28;20496;-59
2022/07/30 09:03:46;;;;;;;35.80;30.60;;;25.70;99.90;;;;;;5080481;28;20436;-55
2022/07/30 09:06:15;;;;;;;34.40;28.83;;;25.40;99.90;;;;;;5080278;28;20461;-57
2022/07/30 09:08:45;;;;;;;31.43;26.83;;;25.50;99.90;;;;;;5080368;28;20759;-57
2022/07/30 09:11:13;;;;;;;32.20;26.60;;;25.30;99.90;;;;;;5080192;28;20463;-59
2022/07/30 09:13:44;;;;;;;33.70;27.57;;;25.50;99.90;;;;;;5079969;28;20526;-59
2022/07/30 09:16:25;;;;;;;30.70;26.20;;;25.70;99.90;;;;;;5080260;28;20949;-59
2022/07/30 09:18:54;;;;;;;31.70;24.67;;;26.10;99.90;;;;;;5080491;28;20472;-60
2022/07/30 09:21:23;;;;;;;28.53;25.40;;;26.50;99.90;;;;;;5080302;28;20465;-57
2022/07/30 09:24:00;;;;;;;25.00;21.47;;;26.60;99.90;;;;;;5079502;28;20782;-56
2022/07/30 09:26:31;;;;;;;23.27;20.60;;;26.60;99.90;;;;;;5079724;28;20493;-59
2022/07/30 09:29:19;;;;;;;25.53;21.37;;;26.10;99.90;;;;;;5079980;28;20886;-56
2022/07/30 09:31:57;;;;;;;24.87;20.60;;;26.80;99.90;;;;;;5079585;28;20511;-58
2022/07/30 09:34:26;;;;;;;21.97;19.67;;;27.00;99.90;;;;;;5079498;28;20556;-60
2022/07/30 09:36:54;;;;;;;19.53;16.97;;;27.10;99.90;;;;;;5078992;28;20478;-58
2022/07/30 09:39:32;;;;;;;22.23;16.97;;;26.00;99.90;;;;;;5080022;28;20890;-54
2022/07/30 09:42:00;;;;;;;23.07;18.03;;;26.20;99.90;;;;;;5079445;28;20497;-56
2022/07/30 09:44:30;;;;;;;23.17;20.33;;;26.10;99.90;;;;;;5079509;28;20476;-57
2022/07/30 09:47:01;;;;;;;21.80;18.70;;;25.60;99.90;;;;;;5079919;28;20772;-59
2022/07/30 09:49:32;;;;;;;20.23;17.27;;;25.60;99.90;;;;;;5078540;28;20473;-58
2022/07/30 09:52:00;;;;;;;22.40;18.40;;;25.80;99.90;;;;;;5079358;28;20580;-57
2022/07/30 09:54:46;;;;;;;19.17;17.27;;;26.80;99.90;;;;;;5079721;28;20733;-59
2022/07/30 09:57:13;;;;;;;22.40;19.43;;;27.60;99.90;;;;;;5079381;28;20510;-59
2022/07/30 09:59:45;;;;;;;19.00;16.80;;;27.50;99.90;;;;;;5079125;28;20444;-60
2022/07/30 10:02:12;;;;;;;17.37;14.90;;;27.80;99.90;;;;;;5079129;28;20468;-57
2022/07/30 10:04:46;;;;;;;15.23;13.37;;;27.80;99.90;;;;;;5079002;28;20461;-60
2022/07/30 10:07:21;;;;;;;14.80;13.07;;;28.20;99.90;;;;;;5078830;28;20488;-60
2022/07/30 10:09:49;;;;;;;13.10;11.20;;;28.20;99.90;;;;;;5079222;28;20530;-54
2022/07/30 10:12:20;;;;;;;14.10;12.00;;;27.80;99.90;;;;;;5079116;28;20886;-58
2022/07/30 10:14:53;;;;;;;11.07;9.97;;;27.80;99.90;;;;;;5079437;28;20474;-60
2022/07/30 10:17:22;;;;;;;10.40;9.37;;;28.00;99.90;;;;;;5077839;28;20457;-59
2022/07/30 10:19:49;;;;;;;13.73;10.00;;;28.10;99.90;;;;;;5077768;28;20457;-60
2022/07/30 10:22:17;;;;;;;13.10;10.90;;;28.10;99.90;;;;;;5079388;28;20487;-60
2022/07/30 10:24:45;;;;;;;12.50;11.40;;;28.30;99.90;;;;;;5078658;28;20466;-56
2022/07/30 10:27:15;;;;;;;14.63;11.20;;;28.50;99.90;;;;;;5077893;28;20492;-59
2022/07/30 10:29:45;;;;;;;11.40;10.40;;;27.90;99.90;;;;;;5079004;28;20467;-58
2022/07/30 10:32:17;;;;;;;10.50;9.50;;;27.30;99.90;;;;;;5078533;28;20462;-58
2022/07/30 10:34:45;;;;;;;10.17;9.27;;;25.80;99.90;;;;;;5078795;28;20461;-59
2022/07/30 10:37:15;;;;;;;13.53;10.27;;;25.00;99.90;;;;;;5077822;28;20462;-58
2022/07/30 10:39:50;;;;;;;9.50;8.07;;;25.40;99.90;;;;;;5078388;28;20468;-56
2022/07/30 10:42:29;;;;;;;12.60;10.33;;;26.50;99.90;;;;;;5078404;28;20526;-59
2022/07/30 10:45:13;;;;;;;10.50;9.47;;;27.40;99.90;;;;;;5078862;28;20465;-59
2022/07/30 10:47:43;;;;;;;9.93;8.80;;;27.10;99.90;;;;;;5078361;28;20523;-60
2022/07/30 10:50:13;;;;;;;10.30;9.40;;;27.30;99.90;;;;;;5078087;28;20898;-60
2022/07/30 10:52:45;;;;;;;11.10;9.97;;;27.70;99.90;;;;;;5075945;28;20501;-60
2022/07/30 10:55:15;;;;;;;10.20;9.37;;;27.70;99.90;;;;;;5077164;28;20473;-57
2022/07/30 10:58:01;;;;;;;9.57;8.67;;;27.80;99.90;;;;;;5076584;28;20560;-59
2022/07/30 11:00:37;;;;;;;11.77;7.97;;;28.20;99.90;;;;;;5067945;28;20457;-57
2022/07/30 11:03:25;;;;;;;9.27;8.00;;;28.20;99.90;;;;;;5076267;28;20475;-59
2022/07/30 11:06:13;;;;;;;10.00;8.67;;;27.70;99.90;;;;;;5062233;28;20474;-59
2022/07/30 11:08:44;;;;;;;11.37;10.10;;;26.80;99.90;;;;;;5076164;28;20497;-59
2022/07/30 11:11:43;;;;;;;9.30;8.40;;;26.50;99.90;;;;;;5076934;28;20473;-59
2022/07/30 11:14:11;;;;;;;10.33;9.30;;;26.70;99.90;;;;;;5078000;28;20473;-59
2022/07/30 11:17:00;;;;;;;12.03;8.23;;;27.60;99.90;;;;;;5061932;28;20576;-59
2022/07/30 11:19:29;;;;;;;8.80;7.57;;;28.10;99.90;;;;;;5062197;28;20476;-60
2022/07/30 11:22:27;;;;;;;7.60;6.80;;;28.40;99.90;;;;;;5077160;28;20473;-59
2022/07/30 11:24:58;;;;;;;8.23;7.23;;;28.80;99.90;;;;;;5076978;28;20443;-53
2022/07/30 11:27:37;;;;;;;8.40;7.57;;;28.80;99.90;;;;;;5069722;28;20524;-55
2022/07/30 11:30:08;;;;;;;8.50;7.20;;;28.60;99.90;;;;;;5076878;28;20472;-58
2022/07/30 11:32:36;;;;;;;7.83;7.13;;;29.10;99.90;;;;;;5075327;28;20465;-57
2022/07/30 11:35:17;;;;;;;8.93;6.73;;;29.10;99.90;;;;;;5075675;28;20465;-59
2022/07/30 11:38:04;;;;;;;6.43;5.90;;;29.70;99.90;;;;;;5071684;28;20469;-61
2022/07/30 11:40:32;;;;;;;6.43;5.77;;;30.60;99.90;;;;;;5074275;28;20466;-60
2022/07/30 11:43:24;;;;;;;7.60;5.97;;;29.60;99.90;;;;;;5075232;28;20461;-60
2022/07/30 11:46:05;;;;;;;8.57;6.77;;;29.00;99.90;;;;;;5073992;28;20922;-60
2022/07/30 11:48:37;;;;;;;6.70;6.00;;;29.20;99.90;;;;;;5076274;28;20497;-59
2022/07/30 11:51:07;;;;;;;7.37;6.57;;;28.30;99.90;;;;;;5077320;28;20465;-60
2022/07/30 11:53:38;;;;;;;9.40;5.80;;;29.50;99.90;;;;;;5076477;28;20495;-59
2022/07/30 11:56:05;;;;;;;6.03;5.43;;;30.00;99.90;;;;;;5077111;28;20857;-60
2022/07/30 11:58:36;;;;;;;7.10;6.20;;;30.20;99.90;;;;;;5077720;28;20457;-59
2022/07/30 12:01:06;;;;;;;5.60;5.10;;;30.50;99.90;;;;;;5077181;28;20465;-58
2022/07/30 12:03:33;;;;;;;5.10;4.60;;;30.00;99.90;;;;;;5077039;28;20798;-60
2022/07/30 12:06:12;;;;;;;6.03;5.43;;;29.50;99.90;;;;;;5076846;28;20443;-57
2022/07/30 12:08:41;;;;;;;5.47;5.07;;;29.60;99.90;;;;;;5077031;28;20538;-59
2022/07/30 12:11:09;;;;;;;5.90;5.10;;;29.10;99.90;;;;;;5077288;28;20469;-59
2022/07/30 12:13:39;;;;;;;4.97;4.40;;;30.30;99.90;;;;;;5070450;28;20509;-56
2022/07/30 12:16:09;;;;;;;9.10;5.03;;;30.60;99.90;;;;;;5066080;28;20450;-60
2022/07/30 12:18:38;;;;;;;6.77;4.70;;;30.90;99.90;;;;;;5077614;28;20570;-59
2022/07/30 12:21:17;;;;;;;5.53;4.97;;;30.90;99.90;;;;;;5079462;28;20461;-60
2022/07/30 12:23:57;;;;;;;4.90;4.50;;;31.00;99.90;;;;;;5060441;28;20454;-60
2022/07/30 12:26:29;;;;;;;6.33;5.50;;;30.50;99.90;;;;;;5060885;28;20775;-58
2022/07/30 12:29:08;;;;;;;9.37;4.73;;;30.60;99.90;;;;;;5064874;28;20484;-61
2022/07/30 12:31:37;;;;;;;4.87;4.37;;;30.40;99.90;;;;;;5070731;28;20480;-58
2022/07/30 12:34:04;;;;;;;5.63;4.07;;;30.40;99.90;;;;;;5058319;28;20743;-58
2022/07/30 12:36:35;;;;;;;4.00;3.60;;;29.80;99.90;;;;;;5059932;28;20782;-54
2022/07/30 12:39:06;;;;;;;3.80;3.40;;;29.90;99.90;;;;;;5060688;28;20489;-59
2022/07/30 12:41:46;;;;;;;3.90;3.50;;;30.30;99.90;;;;;;5060041;28;20436;-60
2022/07/30 12:44:41;;;;;;;4.27;2.93;;;31.00;99.90;;;;;;5060859;28;20466;-60
2022/07/30 12:47:22;;;;;;;4.00;3.70;;;30.50;99.90;;;;;;5060916;28;20465;-58
2022/07/30 12:49:56;;;;;;;4.40;3.80;;;30.30;99.90;;;;;;5058323;28;20502;-53
2022/07/30 12:52:30;;;;;;;5.67;3.67;;;29.30;99.90;;;;;;5058541;28;20493;-56
2022/07/30 12:55:07;;;;;;;4.50;4.00;;;29.40;99.90;;;;;;5060124;28;20561;-58
2022/07/30 12:58:01;;;;;;;5.93;4.17;;;29.70;99.90;;;;;;5066159;28;20456;-59
2022/07/30 13:00:34;;;;;;;4.20;3.80;;;29.20;99.90;;;;;;5080288;28;20461;-59